Time;durP1;ratioP1;P1;durP2;ratioP2;P2;SDS_P1;SDS_P2;PMS_P1;PMS_P2;Temp;Humidity;BMP_temperature;BMP_pressure;BME280_temperature;BME280_humidity;BME280_pressure;Samples;Min_cycle;Max_cycle;Signal;HPM_P1;HPM_P2
2023/03/19 00:01:57;;;;;;;;;;;3.90;99.90;;;;;;5030372;28;20556;-74
2023/03/19 00:04:24;;;;;;;42.17;22.80;;;3.90;99.90;;;;;;5031120;28;19967;-73
2023/03/19 00:06:50;;;;;;;44.30;23.65;;;3.80;99.90;;;;;;5030970;28;20029;-74
2023/03/19 00:09:17;;;;;;;37.78;18.30;;;3.80;99.90;;;;;;5030779;28;20044;-73
2023/03/19 00:11:43;;;;;;;30.92;15.43;;;3.80;99.90;;;;;;5029616;28;20518;-75
2023/03/19 00:14:09;;;;;;;;;;;3.70;99.90;;;;;;5031184;28;20024;-74
2023/03/19 00:16:35;;;;;;;24.88;12.85;;;3.70;99.90;;;;;;5029462;28;19913;-74
2023/03/19 00:19:01;;;;;;;;;;;3.70;99.90;;;;;;5031129;28;20021;-73
2023/03/19 00:21:27;;;;;;;21.20;10.77;;;3.70;99.90;;;;;;5030605;28;19909;-73
2023/03/19 00:23:53;;;;;;;20.02;10.32;;;3.70;99.90;;;;;;5030481;28;20029;-74
2023/03/19 00:26:18;;;;;;;;;;;3.70;99.90;;;;;;5029574;28;20095;-74
2023/03/19 00:28:44;;;;;;;18.55;9.95;;;3.70;99.90;;;;;;5030478;28;20083;-75
2023/03/19 00:31:11;;;;;;;;;;;3.70;99.90;;;;;;5030538;28;20041;-73
2023/03/19 00:33:37;;;;;;;17.35;10.60;;;3.80;99.90;;;;;;5029389;28;19905;-74
2023/03/19 00:36:03;;;;;;;;;;;3.70;99.90;;;;;;5030946;28;20034;-74
2023/03/19 00:38:28;;;;;;;16.63;9.38;;;3.70;99.90;;;;;;5030563;28;19909;-74
2023/03/19 00:40:54;;;;;;;;;;;3.70;99.90;;;;;;5029417;28;20116;-73
2023/03/19 00:43:20;;;;;;;22.88;14.02;;;3.70;99.90;;;;;;5030320;28;19908;-73
2023/03/19 00:45:45;;;;;;;;;;;3.70;99.90;;;;;;5029602;28;20543;-74
2023/03/19 00:48:11;;;;;;;21.63;12.70;;;3.60;99.90;;;;;;5028947;28;20339;-75
2023/03/19 00:50:37;;;;;;;;;;;3.60;99.90;;;;;;5029223;28;20661;-74
2023/03/19 00:53:02;;;;;;;22.23;12.38;;;3.60;99.90;;;;;;5028874;28;19909;-75
2023/03/19 00:55:28;;;;;;;;;;;3.50;99.90;;;;;;5028913;28;20807;-73
2023/03/19 00:57:54;;;;;;;20.35;10.98;;;3.50;99.90;;;;;;5030006;28;19913;-74
2023/03/19 01:00:21;;;;;;;24.17;11.73;;;3.50;99.90;;;;;;5028683;28;20052;-74
2023/03/19 01:02:46;;;;;;;22.88;12.93;;;3.50;99.90;;;;;;5029879;28;20060;-74
2023/03/19 01:05:12;;;;;;;;;;;3.50;99.90;;;;;;5028781;28;20469;-74
2023/03/19 01:07:38;;;;;;;26.55;12.25;;;3.50;99.90;;;;;;5028432;28;19909;-74
2023/03/19 01:10:04;;;;;;;;;;;3.50;99.90;;;;;;5027840;28;20033;-73
2023/03/19 01:12:30;;;;;;;19.50;10.45;;;3.60;99.90;;;;;;5029726;28;19909;-74
2023/03/19 01:14:56;;;;;;;;;;;3.60;99.90;;;;;;5028672;28;20025;-72
2023/03/19 01:17:21;;;;;;;23.90;9.60;;;3.60;99.90;;;;;;5029624;28;20274;-74
2023/03/19 01:19:48;;;;;;;;;;;3.60;99.90;;;;;;5030303;28;20034;-74
2023/03/19 01:22:15;;;;;;;18.77;9.80;;;3.70;99.90;;;;;;5029474;28;19944;-73
2023/03/19 01:24:41;;;;;;;19.23;10.25;;;3.70;99.90;;;;;;5029390;28;20032;-75
2023/03/19 01:27:07;;;;;;;;;;;3.70;99.90;;;;;;5028433;28;20499;-74
2023/03/19 01:29:33;;;;;;;30.95;12.57;;;3.60;99.90;;;;;;5027852;28;19921;-74
2023/03/19 01:31:59;;;;;;;23.27;11.10;;;3.50;99.90;;;;;;5029507;28;20494;-73
2023/03/19 01:34:25;;;;;;;;;;;3.30;99.90;;;;;;5028423;28;20025;-75
2023/03/19 01:36:51;;;;;;;27.75;13.00;;;3.20;99.90;;;;;;5029248;28;20377;-74
2023/03/19 01:39:16;;;;;;;22.05;11.57;;;3.20;99.90;;;;;;5029399;28;20478;-74
2023/03/19 01:41:42;;;;;;;;;;;3.10;99.90;;;;;;5029777;28;20068;-74
2023/03/19 01:44:33;;;;;;;22.60;12.38;;;3.10;99.90;;;;;;5027807;28;19951;-74
2023/03/19 01:47:03;;;;;;;22.92;11.55;;;3.00;99.90;;;;;;5029205;28;20029;-84
2023/03/19 01:49:30;;;;;;;21.70;10.45;;;2.90;99.90;;;;;;5027623;28;20045;-74
2023/03/19 01:51:59;;;;;;;21.98;11.98;;;2.90;99.90;;;;;;5028936;28;20102;-74
2023/03/19 01:54:28;;;;;;;29.33;15.35;;;2.90;99.90;;;;;;5027708;28;20830;-75
2023/03/19 01:57:07;;;;;;;27.42;14.35;;;2.90;99.90;;;;;;5028842;28;20030;-74
2023/03/19 01:59:36;;;;;;;27.35;14.18;;;2.90;99.90;;;;;;5029191;28;20041;-74
2023/03/19 02:02:26;;;;;;;21.23;11.15;;;2.80;99.90;;;;;;5027558;28;20053;-74
2023/03/19 02:05:07;;;;;;;26.80;13.50;;;2.80;99.90;;;;;;5027513;28;20033;-73
2023/03/19 02:07:34;;;;;;;20.45;10.52;;;2.80;99.90;;;;;;5027390;28;20660;-73
2023/03/19 02:10:02;;;;;;;22.80;11.38;;;2.80;99.90;;;;;;5027382;28;20033;-74
2023/03/19 02:12:28;;;;;;;24.50;12.55;;;2.80;99.90;;;;;;5028528;28;20037;-73
2023/03/19 02:14:53;;;;;;;;;;;2.80;99.90;;;;;;5029049;28;20079;-74
2023/03/19 02:17:20;;;;;;;24.60;12.88;;;2.70;99.90;;;;;;5027194;28;20004;-74
2023/03/19 02:19:55;;;;;;;25.30;13.50;;;2.60;99.90;;;;;;5027379;28;20029;-72
2023/03/19 02:22:24;;;;;;;27.00;13.52;;;2.50;99.90;;;;;;5028445;28;20403;-74
2023/03/19 02:24:50;;;;;;;28.23;14.02;;;2.40;99.90;;;;;;5028506;28;20036;-73
2023/03/19 02:27:16;;;;;;;28.38;12.35;;;2.40;99.90;;;;;;5028289;28;20080;-74
2023/03/19 02:29:42;;;;;;;;;;;2.50;99.90;;;;;;5027224;28;20053;-74
2023/03/19 02:32:10;;;;;;;15.75;7.45;;;2.50;99.90;;;;;;5027311;28;19924;-73
2023/03/19 02:34:41;;;;;;;27.85;14.77;;;2.50;99.90;;;;;;5027141;28;20339;-74
2023/03/19 02:37:11;;;;;;;23.27;12.23;;;2.50;99.90;;;;;;5028610;28;20592;-74
2023/03/19 02:39:50;;;;;;;20.02;11.77;;;2.40;99.90;;;;;;5028093;28;20037;-74
2023/03/19 02:42:18;;;;;;;17.70;9.52;;;2.40;99.90;;;;;;5028360;28;20052;-74
2023/03/19 02:44:45;;;;;;;17.80;9.43;;;2.40;99.90;;;;;;5027109;28;20041;-73
2023/03/19 02:47:10;;;;;;;12.95;8.00;;;2.40;99.90;;;;;;5026659;28;20025;-73
2023/03/19 02:49:36;;;;;;;;;;;2.40;99.90;;;;;;5028544;28;20670;-75
2023/03/19 02:52:02;;;;;;;22.30;13.27;;;2.40;99.90;;;;;;5028019;28;19972;-74
2023/03/19 02:54:27;;;;;;;;;;;2.30;99.90;;;;;;5027046;28;20025;-73
2023/03/19 02:56:53;;;;;;;17.73;9.73;;;2.30;99.90;;;;;;5026845;28;20448;-74
2023/03/19 02:59:19;;;;;;;;;;;2.30;99.90;;;;;;5028714;28;20105;-74
2023/03/19 03:01:45;;;;;;;22.10;11.20;;;2.20;99.90;;;;;;5026915;28;20328;-74
2023/03/19 03:04:11;;;;;;;;;;;2.20;99.90;;;;;;5027372;28;20029;-74
2023/03/19 03:06:36;;;;;;;29.30;12.13;;;2.20;99.90;;;;;;5028157;28;19909;-74
2023/03/19 03:09:03;;;;;;;24.88;12.07;;;2.20;99.90;;;;;;5027989;28;20030;-74
2023/03/19 03:11:28;;;;;;;32.10;13.00;;;2.10;99.90;;;;;;5028053;28;20037;-74
2023/03/19 03:13:54;;;;;;;;;;;2.10;99.90;;;;;;5028757;28;20027;-74
2023/03/19 03:16:20;;;;;;;26.60;11.82;;;2.10;99.90;;;;;;5028022;28;19915;-73
2023/03/19 03:18:46;;;;;;;17.73;8.55;;;2.10;99.90;;;;;;5027986;28;20017;-74
2023/03/19 03:21:11;;;;;;;;;;;2.10;99.90;;;;;;5026555;28;20087;-74
2023/03/19 03:23:37;;;;;;;20.75;9.52;;;2.10;99.90;;;;;;5027752;28;19951;-74
2023/03/19 03:26:02;;;;;;;;;;;2.10;99.90;;;;;;5028289;28;20030;-74
2023/03/19 03:28:28;;;;;;;23.00;8.93;;;2.20;99.90;;;;;;5026730;28;20456;-73
2023/03/19 03:30:58;;;;;;;;;;;2.20;99.90;;;;;;5026875;28;20062;-74
2023/03/19 03:33:24;;;;;;;17.35;8.18;;;2.40;99.90;;;;;;5028392;28;19920;-74
2023/03/19 03:35:49;;;;;;;;;;;2.40;99.90;;;;;;5030603;28;20029;-74
2023/03/19 03:38:15;;;;;;;18.42;9.52;;;2.30;99.90;;;;;;5031498;28;19917;-74
2023/03/19 03:40:41;;;;;;;;;;;2.30;99.90;;;;;;5031900;28;20564;-74
2023/03/19 03:43:07;;;;;;;17.90;10.00;;;2.20;99.90;;;;;;5031330;28;19909;-74
2023/03/19 03:45:33;;;;;;;20.83;9.60;;;2.20;99.90;;;;;;5030006;28;20045;-74
2023/03/19 03:47:59;;;;;;;;;;;2.10;99.90;;;;;;5031747;28;20025;-74
2023/03/19 03:50:25;;;;;;;17.45;9.60;;;2.10;99.90;;;;;;5031003;28;19924;-74
2023/03/19 03:52:51;;;;;;;;;;;2.00;99.90;;;;;;5031773;28;20040;-74
2023/03/19 03:55:17;;;;;;;18.38;9.63;;;2.00;99.90;;;;;;5031031;28;19916;-73
2023/03/19 03:57:42;;;;;;;;;;;1.90;99.90;;;;;;5031679;28;20026;-74
2023/03/19 04:00:09;;;;;;;16.70;8.82;;;1.90;99.90;;;;;;5031141;28;19909;-74
2023/03/19 04:02:35;;;;;;;48.80;15.77;;;1.90;99.90;;;;;;5031073;28;20052;-75
2023/03/19 04:05:01;;;;;;;;;;;1.90;99.90;;;;;;5029986;28;20060;-74
2023/03/19 04:07:26;;;;;;;20.77;10.15;;;2.00;99.90;;;;;;5029474;28;19909;-73
2023/03/19 04:09:52;;;;;;;;;;;2.00;99.90;;;;;;5031341;28;20410;-74
2023/03/19 04:12:18;;;;;;;46.95;18.85;;;2.10;99.90;;;;;;5029608;28;19908;-74
2023/03/19 04:14:44;;;;;;;;;;;2.20;99.90;;;;;;5031366;28;20029;-74
2023/03/19 04:17:09;;;;;;;36.78;15.88;;;2.30;99.90;;;;;;5029468;28;19909;-74
2023/03/19 04:19:35;;;;;;;;;;;2.40;99.90;;;;;;5029876;28;20095;-74
2023/03/19 04:22:02;;;;;;;14.98;7.60;;;2.40;99.90;;;;;;5030628;28;19909;-74
2023/03/19 04:24:28;;;;;;;13.48;6.15;;;2.40;99.90;;;;;;5029518;28;20030;-74
2023/03/19 04:26:54;;;;;;;10.80;6.00;;;2.40;99.90;;;;;;5029505;28;20071;-74
2023/03/19 04:29:20;;;;;;;;;;;2.50;99.90;;;;;;5029254;28;20076;-75
2023/03/19 04:31:45;;;;;;;10.23;5.18;;;2.50;99.90;;;;;;5030463;28;19924;-74
2023/03/19 04:34:11;;;;;;;;;;;2.50;99.90;;;;;;5030815;28;20037;-74
2023/03/19 04:36:38;;;;;;;11.68;5.43;;;2.40;99.90;;;;;;5029125;28;20666;-74
2023/03/19 04:39:04;;;;;;;12.00;6.38;;;2.40;99.90;;;;;;5030428;28;20523;-74
2023/03/19 04:41:29;;;;;;;;;;;2.30;99.90;;;;;;5029429;28;20452;-74
2023/03/19 04:43:55;;;;;;;13.68;7.80;;;2.20;99.90;;;;;;5029182;28;19921;-74
2023/03/19 04:46:21;;;;;;;14.52;7.53;;;2.20;99.90;;;;;;5030278;28;20037;-75
2023/03/19 04:48:46;;;;;;;;;;;2.10;99.90;;;;;;5029730;28;20090;-73
2023/03/19 04:51:12;;;;;;;17.77;8.88;;;2.00;99.90;;;;;;5030421;28;19966;-74
2023/03/19 04:53:38;;;;;;;;;;;2.00;99.90;;;;;;5030515;28;20105;-74
2023/03/19 04:56:05;;;;;;;14.82;5.70;;;2.00;99.90;;;;;;5030186;28;19909;-74
2023/03/19 04:58:31;;;;;;;14.75;6.68;;;2.00;99.90;;;;;;5030152;28;20130;-74
2023/03/19 05:00:57;;;;;;;;;;;2.00;99.90;;;;;;5029012;28;20141;-75
2023/03/19 05:03:23;;;;;;;10.82;4.88;;;2.00;99.90;;;;;;5029749;28;19909;-74
2023/03/19 05:05:48;;;;;;;;;;;2.10;99.90;;;;;;5028860;28;20029;-76
2023/03/19 05:08:14;;;;;;;8.18;4.82;;;2.30;99.90;;;;;;5029886;28;19936;-74
2023/03/19 05:10:40;;;;;;;;;;;2.30;99.90;;;;;;5030044;28;20037;-74
2023/03/19 05:13:06;;;;;;;14.38;6.55;;;2.30;99.90;;;;;;5029501;28;19950;-74
2023/03/19 05:15:31;;;;;;;;;;;2.30;99.90;;;;;;5030081;28;20036;-73
2023/03/19 05:17:57;;;;;;;17.30;9.20;;;2.30;99.90;;;;;;5029760;28;19920;-74
2023/03/19 05:20:23;;;;;;;;;;;2.30;99.90;;;;;;5030054;28;20165;-73
2023/03/19 05:22:50;;;;;;;12.75;7.35;;;2.30;99.90;;;;;;5029478;28;19916;-73
2023/03/19 05:25:16;;;;;;;11.48;6.63;;;2.40;99.90;;;;;;5029553;28;20028;-74
2023/03/19 05:27:42;;;;;;;;;;;2.60;99.90;;;;;;5029982;28;20033;-75
2023/03/19 05:30:08;;;;;;;10.68;6.38;;;2.80;99.90;;;;;;5029066;28;20304;-74
2023/03/19 05:32:34;;;;;;;11.10;5.22;;;2.90;99.90;;;;;;5029203;28;20489;-75
2023/03/19 05:35:00;;;;;;;;;;;3.00;99.90;;;;;;5029689;28;20486;-74
2023/03/19 05:37:25;;;;;;;25.08;7.25;;;3.00;99.90;;;;;;5029082;28;20000;-73
2023/03/19 05:39:51;;;;;;;;;;;3.20;99.90;;;;;;5028243;28;20025;-74
2023/03/19 05:42:16;;;;;;;10.10;4.90;;;3.20;99.90;;;;;;5027650;28;19909;-74
2023/03/19 05:44:42;;;;;;;;;;;3.30;99.90;;;;;;5028153;28;20057;-74
2023/03/19 05:47:10;;;;;;;11.63;6.30;;;3.40;99.90;;;;;;5028923;28;19909;-74
2023/03/19 05:49:36;;;;;;;13.57;7.30;;;3.60;99.90;;;;;;5027569;28;20059;-71
2023/03/19 05:52:01;;;;;;;;;;;3.80;99.90;;;;;;5029344;28;20414;-72
2023/03/19 05:54:27;;;;;;;16.13;8.32;;;4.00;99.90;;;;;;5028873;28;19909;-73
2023/03/19 05:56:52;;;;;;;;;;;4.40;99.90;;;;;;5028558;28;20032;-74
2023/03/19 05:59:18;;;;;;;15.93;8.48;;;4.70;99.90;;;;;;5028796;28;20301;-73
2023/03/19 06:01:44;;;;;;;;;;;5.10;99.90;;;;;;5029005;28;20486;-74
2023/03/19 06:04:10;;;;;;;18.58;10.38;;;5.50;99.90;;;;;;5027364;28;20324;-74
2023/03/19 06:06:35;;;;;;;;;;;6.00;99.90;;;;;;5029226;28;20533;-72
2023/03/19 06:09:01;;;;;;;16.60;7.93;;;6.50;99.90;;;;;;5028529;28;19952;-74
2023/03/19 06:11:27;;;;;;;;;;;6.90;99.40;;;;;;5027705;28;20040;-74
2023/03/19 06:13:52;;;;;;;14.65;8.05;;;7.20;99.90;;;;;;5028540;28;19967;-75
2023/03/19 06:16:18;;;;;;;15.88;8.52;;;7.70;98.50;;;;;;5028582;28;20042;-74
2023/03/19 06:18:44;;;;;;;;;;;7.90;99.70;;;;;;5027976;28;20552;-73
2023/03/19 06:21:10;;;;;;;15.45;8.10;;;8.40;94.70;;;;;;5028508;28;19916;-75
2023/03/19 06:23:35;;;;;;;;;;;8.90;92.40;;;;;;5027454;28;20029;-73
2023/03/19 06:26:01;;;;;;;15.55;8.20;;;9.40;85.00;;;;;;5028552;28;19905;-74
2023/03/19 06:28:27;;;;;;;;;;;9.80;83.90;;;;;;5027374;28;20025;-72
2023/03/19 06:30:55;;;;;;;10.40;5.75;;;10.30;76.40;;;;;;5026777;28;20305;-75
2023/03/19 06:33:21;;;;;;;12.25;5.85;;;10.80;73.20;;;;;;5028363;28;20079;-75
2023/03/19 06:35:47;;;;;;;;;;;11.30;72.20;;;;;;5028752;28;20029;-74
2023/03/19 06:38:13;;;;;;;7.93;3.90;;;11.80;66.20;;;;;;5028489;28;20004;-74
2023/03/19 06:40:38;;;;;;;;;;;12.30;63.00;;;;;;5027655;28;20148;-74
2023/03/19 06:43:04;;;;;;;8.13;3.80;;;13.00;56.80;;;;;;5026744;28;19908;-75
2023/03/19 06:45:30;;;;;;;;;;;13.70;56.40;;;;;;5028594;28;20448;-75
2023/03/19 06:47:56;;;;;;;4.05;2.90;;;14.40;51.30;;;;;;5027121;28;19913;-75
2023/03/19 06:50:22;;;;;;;5.05;2.95;;;14.80;50.40;;;;;;5027950;28;20043;-74
2023/03/19 06:52:48;;;;;;;5.95;3.30;;;15.50;48.10;;;;;;5026733;28;20022;-75
2023/03/19 06:55:13;;;;;;;6.15;2.83;;;15.80;47.20;;;;;;5028080;28;20061;-75
2023/03/19 06:57:39;;;;;;;6.65;3.05;;;16.00;46.40;;;;;;5027927;28;20028;-74
2023/03/19 07:00:06;;;;;;;6.03;2.45;;;16.60;45.00;;;;;;5026675;28;20036;-73
2023/03/19 07:02:32;;;;;;;3.65;2.47;;;17.20;43.90;;;;;;5028394;28;20446;-75
2023/03/19 07:04:57;;;;;;;4.35;2.30;;;17.30;42.60;;;;;;5027941;28;20026;-75
2023/03/19 07:07:23;;;;;;;3.83;2.38;;;17.40;40.40;;;;;;5028674;28;20417;-75
2023/03/19 07:09:49;;;;;;;4.25;2.45;;;17.50;40.20;;;;;;5030473;28;20486;-74
2023/03/19 07:12:15;;;;;;;4.57;2.30;;;17.70;40.50;;;;;;5031890;28;20049;-75
2023/03/19 07:14:40;;;;;;;3.38;2.20;;;18.20;38.70;;;;;;5030691;28;20643;-75
2023/03/19 07:17:06;;;;;;;6.15;2.28;;;18.60;36.90;;;;;;5031703;28;20167;-74
2023/03/19 07:19:32;;;;;;;3.80;1.80;;;18.50;35.20;;;;;;5031772;28;20066;-74
2023/03/19 07:21:57;;;;;;;4.18;1.92;;;18.30;34.30;;;;;;5030590;28;20038;-74
2023/03/19 07:24:23;;;;;;;4.53;1.75;;;18.30;33.80;;;;;;5030285;28;20367;-75
2023/03/19 07:26:49;;;;;;;2.90;1.60;;;18.00;33.20;;;;;;5031579;28;20037;-74
2023/03/19 07:29:16;;;;;;;3.72;1.80;;;17.80;35.00;;;;;;5030316;28;20044;-75
2023/03/19 07:31:42;;;;;;;8.13;2.40;;;18.30;33.50;;;;;;5031637;28;20045;-75
2023/03/19 07:34:07;;;;;;;6.78;1.88;;;18.70;34.30;;;;;;5030350;28;20029;-75
2023/03/19 07:36:33;;;;;;;4.10;1.77;;;19.20;31.80;;;;;;5031637;28;20130;-75
2023/03/19 07:38:59;;;;;;;6.15;1.80;;;19.50;31.30;;;;;;5030398;28;20025;-75
2023/03/19 07:41:25;;;;;;;5.07;2.45;;;19.80;32.60;;;;;;5029753;28;20029;-75
2023/03/19 07:43:50;;;;;;;3.10;1.42;;;20.40;30.80;;;;;;5030460;28;20045;-75
2023/03/19 07:46:16;;;;;;;3.65;1.80;;;21.00;29.80;;;;;;5029767;28;20033;-75
2023/03/19 07:48:42;;;;;;;3.28;1.92;;;21.50;29.00;;;;;;5030582;28;20022;-75
2023/03/19 07:51:08;;;;;;;3.65;1.80;;;21.90;28.50;;;;;;5030933;28;20048;-75
2023/03/19 07:53:33;;;;;;;4.03;1.90;;;22.30;28.20;;;;;;5031199;28;20013;-74
2023/03/19 07:55:59;;;;;;;4.45;1.85;;;22.50;28.10;;;;;;5029866;28;20038;-74
2023/03/19 07:58:25;;;;;;;5.38;3.28;;;22.70;26.90;;;;;;5031102;28;20044;-75
2023/03/19 08:00:52;;;;;;;3.75;2.05;;;22.60;26.50;;;;;;5031194;28;20108;-75
2023/03/19 08:03:18;;;;;;;5.75;2.75;;;22.70;27.10;;;;;;5030925;28;20026;-75
2023/03/19 08:05:44;;;;;;;3.80;1.58;;;22.70;26.90;;;;;;5029494;28;20036;-74
2023/03/19 08:08:09;;;;;;;3.47;1.80;;;22.60;25.70;;;;;;5030854;28;20024;-74
2023/03/19 08:10:36;;;;;;;3.22;1.38;;;21.90;25.90;;;;;;5030699;28;20054;-75
2023/03/19 08:13:02;;;;;;;2.70;1.70;;;21.90;27.00;;;;;;5029369;28;20421;-75
2023/03/19 08:15:28;;;;;;;4.68;2.17;;;21.90;26.40;;;;;;5030705;28;20017;-75
2023/03/19 08:18:02;;;;;;;3.92;1.77;;;22.30;27.00;;;;;;5029396;28;20037;-75
2023/03/19 08:20:28;;;;;;;5.35;2.50;;;22.50;26.30;;;;;;5030556;28;20120;-75
2023/03/19 08:22:55;;;;;;;3.17;1.65;;;22.30;25.10;;;;;;5030664;28;20438;-75
2023/03/19 08:25:21;;;;;;;2.40;1.60;;;22.40;26.30;;;;;;5030559;28;20052;-75
2023/03/19 08:27:48;;;;;;;4.63;1.98;;;22.00;27.10;;;;;;5029639;28;20112;-74
2023/03/19 08:30:14;;;;;;;2.55;1.90;;;21.50;26.00;;;;;;5030366;28;20497;-74
2023/03/19 08:32:40;;;;;;;3.80;1.48;;;21.10;26.80;;;;;;5030512;28;20151;-75
2023/03/19 08:35:07;;;;;;;3.38;1.92;;;20.80;26.20;;;;;;5029089;28;20124;-75
2023/03/19 08:37:32;;;;;;;2.92;1.77;;;20.70;27.20;;;;;;5029172;28;20040;-75
2023/03/19 08:39:58;;;;;;;4.18;1.83;;;20.90;27.70;;;;;;5029088;28;20029;-74
2023/03/19 08:42:24;;;;;;;2.55;1.27;;;21.00;26.20;;;;;;5029011;28;20025;-75
2023/03/19 08:44:49;;;;;;;3.70;1.73;;;20.70;27.10;;;;;;5030179;28;20028;-76
2023/03/19 08:47:15;;;;;;;3.92;1.88;;;20.70;27.20;;;;;;5030149;28;20033;-75
2023/03/19 08:49:41;;;;;;;4.20;1.70;;;20.80;27.40;;;;;;5028819;28;20409;-75
2023/03/19 08:52:07;;;;;;;2.22;1.23;;;21.20;27.00;;;;;;5030047;28;20118;-74
2023/03/19 08:54:34;;;;;;;3.67;1.90;;;21.40;25.90;;;;;;5029906;28;20036;-74
2023/03/19 08:57:00;;;;;;;3.33;1.67;;;21.30;26.40;;;;;;5029904;28;20025;-74
2023/03/19 08:59:26;;;;;;;6.88;2.15;;;21.40;26.80;;;;;;5029799;28;20029;-74
2023/03/19 09:01:52;;;;;;;5.25;1.92;;;21.60;26.10;;;;;;5028592;28;20025;-74
2023/03/19 09:04:21;;;;;;;3.45;1.67;;;21.60;26.30;;;;;;5029637;28;20026;-75
2023/03/19 09:06:50;;;;;;;2.40;1.58;;;21.50;25.80;;;;;;5029739;28;20071;-75
2023/03/19 09:09:21;;;;;;;8.63;1.65;;;21.40;25.90;;;;;;5028308;28;20040;-74
2023/03/19 09:11:47;;;;;;;2.63;1.60;;;21.30;25.60;;;;;;5028144;28;20037;-75
2023/03/19 09:14:15;;;;;;;3.47;1.60;;;21.40;26.10;;;;;;5028523;28;20037;-75
2023/03/19 09:16:42;;;;;;;5.22;1.90;;;21.50;26.00;;;;;;5029732;28;20143;-74
2023/03/19 09:19:08;;;;;;;3.38;1.92;;;21.60;26.40;;;;;;5029401;28;20025;-75
2023/03/19 09:21:35;;;;;;;4.10;1.75;;;21.60;25.80;;;;;;5029524;28;20200;-75
2023/03/19 09:24:02;;;;;;;3.92;1.75;;;21.30;24.90;;;;;;5029651;28;20033;-74
2023/03/19 09:26:28;;;;;;;3.83;1.77;;;20.30;25.70;;;;;;5029566;28;20510;-75
2023/03/19 09:28:53;;;;;;;3.30;1.92;;;20.20;26.80;;;;;;5028089;28;20037;-74
2023/03/19 09:31:19;;;;;;;4.85;2.00;;;20.40;26.60;;;;;;5027088;28;20037;-75
2023/03/19 09:33:45;;;;;;;3.72;1.83;;;20.50;26.90;;;;;;5029220;28;20478;-75
2023/03/19 09:36:10;;;;;;;3.50;1.75;;;21.00;27.10;;;;;;5029145;28;20033;-74
2023/03/19 09:38:36;;;;;;;3.58;2.35;;;21.40;26.50;;;;;;5029329;28;20026;-75
2023/03/19 09:41:11;;;;;;;7.15;2.13;;;21.40;25.00;;;;;;5029114;28;20434;-74
2023/03/19 09:44:04;;;;;;;5.53;2.73;;;21.00;25.30;;;;;;5029001;28;20029;-74
2023/03/19 09:46:47;;;;;;;3.45;2.00;;;20.40;26.50;;;;;;5028879;28;20037;-75
2023/03/19 09:49:22;;;;;;;9.68;2.60;;;20.40;27.00;;;;;;5027481;28;20025;-75
2023/03/19 09:51:51;;;;;;;2.70;1.80;;;20.60;27.70;;;;;;5027537;28;20041;-74
2023/03/19 09:54:28;;;;;;;5.18;2.47;;;21.00;27.70;;;;;;5027504;28;20467;-74
2023/03/19 09:56:54;;;;;;;3.38;2.47;;;21.30;26.80;;;;;;5027510;28;20532;-74
2023/03/19 09:59:25;;;;;;;6.82;2.33;;;21.50;26.30;;;;;;5028799;28;20472;-75
2023/03/19 10:02:21;;;;;;;3.13;2.03;;;21.00;26.30;;;;;;5029017;28;20603;-75
2023/03/19 10:05:07;;;;;;;6.30;2.28;;;21.00;26.70;;;;;;5028554;28;20172;-74
2023/03/19 10:07:48;;;;;;;4.80;2.95;;;21.10;27.20;;;;;;5027317;28;20120;-74
2023/03/19 10:10:27;;;;;;;5.97;2.92;;;21.30;27.00;;;;;;5028459;28;20045;-74
2023/03/19 10:13:01;;;;;;;5.47;3.00;;;21.60;27.80;;;;;;5028738;28;20087;-74
2023/03/19 10:15:30;;;;;;;7.35;3.70;;;21.40;27.20;;;;;;5027313;28;20852;-74
2023/03/19 10:18:15;;;;;;;6.50;3.10;;;21.30;28.20;;;;;;5028749;28;20037;-75
2023/03/19 10:20:47;;;;;;;6.28;4.13;;;21.50;27.90;;;;;;5028898;28;20025;-74
2023/03/19 10:23:33;;;;;;;3.90;3.08;;;21.50;28.00;;;;;;5028730;28;20036;-74
2023/03/19 10:26:02;;;;;;;7.05;3.08;;;20.80;27.90;;;;;;5027224;28;20079;-73
2023/03/19 10:28:29;;;;;;;14.57;9.20;;;20.50;28.00;;;;;;5028508;28;20017;-76
2023/03/19 10:31:00;;;;;;;8.10;6.05;;;20.20;29.20;;;;;;5026955;28;20053;-75
2023/03/19 10:34:00;;;;;;;7.75;4.65;;;20.30;28.90;;;;;;5028439;28;20128;-74
2023/03/19 10:36:32;;;;;;;8.13;4.35;;;20.60;28.90;;;;;;5027890;28;20072;-75
2023/03/19 10:38:57;;;;;;;4.15;2.67;;;20.50;28.90;;;;;;5027103;28;20104;-74
2023/03/19 10:41:42;;;;;;;5.00;3.10;;;20.10;29.60;;;;;;5028048;28;20505;-74
2023/03/19 10:44:29;;;;;;;5.38;3.53;;;19.70;29.90;;;;;;5028269;28;20017;-74
2023/03/19 10:47:08;;;;;;;6.20;3.90;;;18.60;30.40;;;;;;5028232;28;20044;-72
2023/03/19 10:49:35;;;;;;;4.90;3.20;;;17.90;31.30;;;;;;5028239;28;20037;-73
2023/03/19 10:52:01;;;;;;;4.90;3.00;;;17.20;32.20;;;;;;5026941;28;20127;-75
2023/03/19 10:54:28;;;;;;;5.82;3.47;;;16.10;33.50;;;;;;5026806;28;20112;-74
2023/03/19 10:56:56;;;;;;;5.88;3.28;;;15.50;34.70;;;;;;5028598;28;20034;-74
2023/03/19 10:59:30;;;;;;;11.07;6.10;;;14.90;36.30;;;;;;5028213;28;20078;-74
2023/03/19 11:02:13;;;;;;;9.73;3.95;;;14.70;37.20;;;;;;5027018;28;20879;-75
2023/03/19 11:04:39;;;;;;;6.63;4.07;;;14.70;39.10;;;;;;5026735;28;20037;-75
2023/03/19 11:07:10;;;;;;;;;;;14.80;39.60;;;;;;5027148;28;20021;-75
2023/03/19 11:09:38;;;;;;;8.40;5.07;;;15.00;39.90;;;;;;5028139;28;19919;-75
2023/03/19 11:12:17;;;;;;;7.55;4.35;;;14.90;38.50;;;;;;5026833;28;20030;-74
2023/03/19 11:14:45;;;;;;;7.03;4.43;;;15.00;39.30;;;;;;5028128;28;20021;-74
2023/03/19 11:17:20;;;;;;;7.63;4.18;;;15.00;39.50;;;;;;5026598;28;20125;-74
2023/03/19 11:19:57;;;;;;;7.60;4.93;;;15.00;39.20;;;;;;5026926;28;20513;-75
2023/03/19 11:22:34;;;;;;;8.73;4.32;;;15.00;39.60;;;;;;5027834;28;20032;-74
2023/03/19 11:25:02;;;;;;;12.05;4.60;;;15.10;40.20;;;;;;5028200;28;20029;-75
2023/03/19 11:27:34;;;;;;;14.80;8.57;;;15.10;39.80;;;;;;5026566;28;20038;-75
2023/03/19 11:30:03;;;;;;;15.82;10.82;;;15.10;39.90;;;;;;5026338;28;20053;-75
2023/03/19 11:32:51;;;;;;;9.30;5.63;;;14.90;39.30;;;;;;5027925;28;20068;-76
2023/03/19 11:35:24;;;;;;;11.07;5.88;;;14.70;40.40;;;;;;5026415;28;20087;-75
2023/03/19 11:37:56;;;;;;;10.73;7.40;;;14.50;41.10;;;;;;5027910;28;20079;-74
2023/03/19 11:40:30;;;;;;;21.58;13.70;;;14.10;41.10;;;;;;5026375;28;20030;-74
2023/03/19 11:43:05;;;;;;;11.88;5.93;;;14.00;41.70;;;;;;5026533;28;20036;-74
2023/03/19 11:45:54;;;;;;;11.40;7.88;;;14.20;42.80;;;;;;5027742;28;20118;-74
2023/03/19 11:48:48;;;;;;;11.27;7.80;;;14.40;42.10;;;;;;5027711;28;20022;-74
2023/03/19 11:51:27;;;;;;;16.83;8.93;;;14.50;42.40;;;;;;5026462;28;20133;-74
2023/03/19 11:54:03;;;;;;;8.55;5.78;;;14.50;42.20;;;;;;5028732;28;20029;-74
2023/03/19 11:56:34;;;;;;;8.43;5.15;;;14.50;42.60;;;;;;5029759;28;20921;-75
2023/03/19 11:59:17;;;;;;;14.18;9.80;;;14.50;43.00;;;;;;5030957;28;20512;-75
2023/03/19 12:02:20;;;;;;;12.40;6.45;;;14.80;42.50;;;;;;5029764;28;20025;-74
2023/03/19 12:05:23;;;;;;;8.68;5.85;;;14.80;41.60;;;;;;5030989;28;20079;-75
2023/03/19 12:07:57;;;;;;;10.07;6.82;;;14.70;42.30;;;;;;5030935;28;20041;-74
2023/03/19 12:10:47;;;;;;;13.55;6.07;;;14.60;42.00;;;;;;5030930;28;20025;-74
2023/03/19 12:13:36;;;;;;;9.20;6.07;;;14.30;43.30;;;;;;5030920;28;20543;-74
2023/03/19 12:16:31;;;;;;;7.10;4.90;;;14.10;44.00;;;;;;5030872;28;20029;-73
2023/03/19 12:19:10;;;;;;;10.20;6.25;;;14.10;44.40;;;;;;5030728;28;20025;-74
2023/03/19 12:21:43;;;;;;;9.32;5.88;;;14.10;44.20;;;;;;5030645;28;20033;-74
2023/03/19 12:24:27;;;;;;;8.23;5.32;;;14.30;44.80;;;;;;5030526;28;20037;-74
2023/03/19 12:27:23;;;;;;;8.95;5.97;;;14.60;44.60;;;;;;5029117;28;20105;-75
2023/03/19 12:30:16;;;;;;;10.73;5.85;;;14.60;43.00;;;;;;5030170;28;20422;-75
2023/03/19 12:33:16;;;;;;;8.95;4.90;;;14.60;43.50;;;;;;5029192;28;20030;-75
2023/03/19 12:35:48;;;;;;;10.60;6.22;;;14.60;43.30;;;;;;5029098;28;20026;-75
2023/03/19 12:38:37;;;;;;;9.15;5.65;;;14.80;42.90;;;;;;5029259;28;20043;-75
2023/03/19 12:41:10;;;;;;;11.05;5.90;;;14.70;42.70;;;;;;5030365;28;20524;-74
2023/03/19 12:43:48;;;;;;;8.13;4.82;;;14.70;41.70;;;;;;5030394;28;20029;-74
2023/03/19 12:46:22;;;;;;;39.95;20.45;;;14.70;41.80;;;;;;5030256;28;20432;-75
2023/03/19 12:48:57;;;;;;;13.73;9.02;;;14.60;42.70;;;;;;5030279;28;20401;-74
2023/03/19 12:51:28;;;;;;;8.68;5.28;;;14.60;41.80;;;;;;5030145;28;20033;-75
2023/03/19 12:54:19;;;;;;;14.98;9.38;;;14.70;42.10;;;;;;5030104;28;20041;-74
2023/03/19 12:57:16;;;;;;;8.57;5.68;;;14.90;42.20;;;;;;5028687;28;20456;-73
2023/03/19 12:59:50;;;;;;;11.05;4.90;;;14.80;41.40;;;;;;5029693;28;20095;-74
2023/03/19 13:02:35;;;;;;;9.15;4.85;;;14.90;41.50;;;;;;5028719;28;20025;-74
2023/03/19 13:05:22;;;;;;;10.23;6.93;;;14.80;41.80;;;;;;5028497;28;20075;-73
2023/03/19 13:08:10;;;;;;;9.23;5.22;;;14.80;42.00;;;;;;5029971;28;20116;-74
2023/03/19 13:10:36;;;;;;;8.95;5.22;;;14.90;42.50;;;;;;5028546;28;20041;-75
2023/03/19 13:13:12;;;;;;;;;;;15.10;42.70;;;;;;5028837;28;20508;-74
2023/03/19 13:15:47;;;;;;;8.35;4.88;;;15.20;42.70;;;;;;5030059;28;19909;-74